createdAt,value
2022-11-05T00:00:19.806Z,100391.06
2022-11-05T00:03:04.840Z,100387.25
2022-11-05T00:05:50.887Z,100392.63
2022-11-05T00:08:36.390Z,100386.41
2022-11-05T00:11:03.137Z,100391.81
2022-11-05T00:13:48.692Z,100388.34
2022-11-05T00:16:41.498Z,100390.16
2022-11-05T00:19:09.131Z,100388.66
2022-11-05T00:21:57.937Z,100379.75
2022-11-05T00:24:43.520Z,100376.34
2022-11-05T00:27:10.672Z,100383.19
2022-11-05T00:29:38.110Z,100372.28
2022-11-05T00:32:05.291Z,100375.09
2022-11-05T00:34:32.132Z,100381.25
2022-11-05T00:36:59.043Z,100385.41
2022-11-05T00:39:25.999Z,100388.03
2022-11-05T00:42:11.606Z,100390.63
2022-11-05T00:44:57.331Z,100389.06
2022-11-05T00:47:43.054Z,100389.16
2022-11-05T00:50:10.951Z,100385.53
2022-11-05T00:52:57.421Z,100387.16
2022-11-05T00:55:30.649Z,100392.47
2022-11-05T00:57:57.888Z,100383.34
2022-11-05T01:00:26.871Z,100393.03
2022-11-05T01:02:54.012Z,100385.13
2022-11-05T01:05:21.019Z,100390.38
2022-11-05T01:07:47.880Z,100388.00
2022-11-05T01:10:15.025Z,100386.69
2022-11-05T01:12:41.870Z,100396.22
2022-11-05T01:15:09.558Z,100383.78
2022-11-05T01:17:36.681Z,100385.00
2022-11-05T01:20:04.317Z,100380.38
2022-11-05T01:22:31.236Z,100376.53
2022-11-05T01:24:58.107Z,100380.28
2022-11-05T01:27:25.027Z,100376.25
2022-11-05T01:29:51.861Z,100361.53
2022-11-05T01:32:18.689Z,100356.41
2022-11-05T01:34:45.531Z,100352.25
2022-11-05T01:37:13.787Z,100357.31
2022-11-05T01:39:40.714Z,100341.75
2022-11-05T01:42:22.994Z,100351.63
2022-11-05T01:44:59.934Z,100346.25
2022-11-05T01:47:46.276Z,100345.06
2022-11-05T01:50:18.885Z,100334.91
2022-11-05T01:52:47.453Z,100334.50
2022-11-05T01:55:20.989Z,100339.75
2022-11-05T01:57:47.932Z,100339.47
2022-11-05T02:00:16.722Z,100342.47
2022-11-05T02:02:44.335Z,100334.06
2022-11-05T02:05:12.757Z,100337.69
2022-11-05T02:07:40.940Z,100331.19
2022-11-05T02:10:18.006Z,100332.66
2022-11-05T02:12:46.788Z,100331.34
2022-11-05T02:15:16.159Z,100331.09
2022-11-05T02:17:53.376Z,100326.78
2022-11-05T02:21:16.862Z,100328.03
2022-11-05T02:24:05.004Z,100322.72
2022-11-05T02:26:34.879Z,100324.72
2022-11-05T02:29:43.139Z,100337.66
2022-11-05T02:32:12.799Z,100330.66
2022-11-05T02:35:10.151Z,100337.03
2022-11-05T02:37:44.965Z,100333.75
2022-11-05T02:40:17.684Z,100331.91
2022-11-05T02:43:06.000Z,100328.34
2022-11-05T02:45:42.446Z,100344.19
2022-11-05T02:48:15.366Z,100341.53
2022-11-05T02:51:06.880Z,100339.84
2022-11-05T02:53:42.722Z,100334.88
2022-11-05T02:56:17.146Z,100340.19
2022-11-05T02:58:44.026Z,100333.00
2022-11-05T03:01:14.385Z,100335.09
2022-11-05T03:03:46.059Z,100330.72
2022-11-05T03:06:21.914Z,100334.03
2022-11-05T03:09:10.182Z,100335.09
2022-11-05T03:11:56.408Z,100330.41
2022-11-05T03:14:54.081Z,100334.13
2022-11-05T03:17:55.137Z,100325.13
2022-11-05T03:20:26.573Z,100323.91
2022-11-05T03:23:02.415Z,100329.13
2022-11-05T03:25:32.195Z,100325.44
2022-11-05T03:28:05.149Z,100331.19
2022-11-05T03:30:35.692Z,100336.03
2022-11-05T03:33:09.126Z,100336.25
2022-11-05T03:35:40.514Z,100329.38
2022-11-05T03:38:12.543Z,100327.81
2022-11-05T03:40:42.818Z,100328.63
2022-11-05T03:43:10.172Z,100324.84
2022-11-05T03:45:44.348Z,100316.16
2022-11-05T03:48:14.687Z,100319.28
2022-11-05T03:50:56.043Z,100308.47
2022-11-05T03:53:28.152Z,100306.66
2022-11-05T03:55:59.342Z,100299.72
2022-11-05T03:58:27.300Z,100303.59
2022-11-05T04:00:54.291Z,100306.00
2022-11-05T04:03:21.342Z,100308.44
2022-11-05T04:06:08.655Z,100310.56
2022-11-05T04:08:54.395Z,100305.53
2022-11-05T04:11:39.743Z,100305.91
2022-11-05T04:14:06.760Z,100305.78
2022-11-05T04:16:52.010Z,100315.47
2022-11-05T04:19:38.876Z,100311.50
2022-11-05T04:22:24.344Z,100313.38
2022-11-05T04:24:51.305Z,100318.09
2022-11-05T04:27:18.241Z,100315.56
2022-11-05T04:30:03.658Z,100321.75
2022-11-05T04:32:30.483Z,100321.84
2022-11-05T04:34:57.360Z,100325.25
2022-11-05T04:37:24.242Z,100321.19
2022-11-05T04:39:51.159Z,100316.63
2022-11-05T04:42:18.012Z,100319.63
2022-11-05T04:44:45.032Z,100315.16
2022-11-05T04:47:11.960Z,100320.25
2022-11-05T04:49:38.828Z,100321.22
2022-11-05T04:52:05.806Z,100323.50
2022-11-05T04:54:32.690Z,100318.00
2022-11-05T04:56:59.631Z,100313.94
2022-11-05T04:59:26.470Z,100322.31
2022-11-05T05:01:53.578Z,100323.69
2022-11-05T05:04:20.856Z,100317.38
2022-11-05T05:06:47.734Z,100315.03
2022-11-05T05:09:14.701Z,100318.69
2022-11-05T05:11:41.552Z,100319.09
2022-11-05T05:14:08.878Z,100329.25
2022-11-05T05:16:35.730Z,100338.16
2022-11-05T05:19:02.679Z,100336.72
2022-11-05T05:21:41.811Z,100321.16
2022-11-05T05:24:17.482Z,100331.13
2022-11-05T05:26:46.688Z,100332.50
2022-11-05T05:29:14.351Z,100338.56
2022-11-05T05:31:42.221Z,100342.16
2022-11-05T05:34:12.488Z,100337.25
2022-11-05T05:36:39.486Z,100341.38
2022-11-05T05:39:07.490Z,100350.03
2022-11-05T05:41:34.598Z,100349.63
2022-11-05T05:44:01.446Z,100350.81
2022-11-05T05:46:28.317Z,100359.03
2022-11-05T05:48:55.210Z,100359.94
2022-11-05T05:51:22.082Z,100370.25
2022-11-05T05:53:48.964Z,100368.59
2022-11-05T05:56:19.325Z,100361.66
2022-11-05T05:58:46.652Z,100369.59
2022-11-05T06:01:19.382Z,100374.34
2022-11-05T06:03:48.693Z,100377.56
2022-11-05T06:06:19.841Z,100370.88
2022-11-05T06:08:47.712Z,100374.34
2022-11-05T06:11:15.092Z,100386.28
2022-11-05T06:13:42.011Z,100383.81
2022-11-05T06:16:10.133Z,100389.75
2022-11-05T06:18:37.539Z,100393.66
2022-11-05T06:21:13.429Z,100391.13
2022-11-05T06:23:42.112Z,100393.75
2022-11-05T06:26:11.819Z,100396.72
2022-11-05T06:28:38.944Z,100395.53
2022-11-05T06:31:06.311Z,100391.75
2022-11-05T06:33:33.153Z,100399.44
2022-11-05T06:36:01.797Z,100398.50
2022-11-05T06:38:31.760Z,100396.34
2022-11-05T06:40:59.849Z,100398.19
2022-11-05T06:43:28.080Z,100393.19
2022-11-05T06:45:56.122Z,100393.84
2022-11-05T06:48:23.367Z,100399.44
2022-11-05T06:50:50.286Z,100392.66
2022-11-05T06:53:17.942Z,100388.28
2022-11-05T06:55:45.091Z,100390.09
2022-11-05T06:58:11.979Z,100391.78
2022-11-05T07:00:38.837Z,100387.28
2022-11-05T07:03:07.594Z,100390.59
2022-11-05T07:05:37.464Z,100398.16
2022-11-05T07:08:04.433Z,100386.59
2022-11-05T07:10:31.329Z,100394.69
2022-11-05T07:12:58.191Z,100398.09
2022-11-05T07:15:25.112Z,100393.00
2022-11-05T07:17:57.716Z,100383.56
2022-11-05T07:20:28.223Z,100379.31
2022-11-05T07:23:05.701Z,100386.59
2022-11-05T07:25:33.985Z,100374.16
2022-11-05T07:28:01.850Z,100384.78
2022-11-05T07:30:31.069Z,100379.25
2022-11-05T07:32:58.176Z,100387.19
2022-11-05T07:35:25.367Z,100385.91
2022-11-05T07:37:56.377Z,100382.78
2022-11-05T07:40:25.804Z,100378.19
2022-11-05T07:42:58.053Z,100380.09
2022-11-05T07:45:26.336Z,100369.00
2022-11-05T07:47:55.505Z,100374.34
2022-11-05T07:50:24.334Z,100374.38
2022-11-05T07:52:51.691Z,100375.22
2022-11-05T07:55:20.924Z,100382.22
2022-11-05T07:57:50.003Z,100382.72
2022-11-05T08:00:24.061Z,100385.47
2022-11-05T08:03:12.095Z,100385.13
2022-11-05T08:05:44.627Z,100382.00
2022-11-05T08:08:16.579Z,100377.44
2022-11-05T08:10:43.650Z,100386.00
2022-11-05T08:13:11.889Z,100380.16
2022-11-05T08:15:39.784Z,100379.25
2022-11-05T08:18:09.060Z,100372.38
2022-11-05T08:20:37.154Z,100379.97
2022-11-05T08:23:04.899Z,100380.44
2022-11-05T08:25:32.384Z,100366.22
2022-11-05T08:28:07.614Z,100373.88
2022-11-05T08:30:35.463Z,100365.34
2022-11-05T08:33:08.934Z,100372.59
2022-11-05T08:35:37.645Z,100368.13
2022-11-05T08:38:06.662Z,100363.22
2022-11-05T08:40:35.361Z,100373.78
2022-11-05T08:43:04.782Z,100374.19
2022-11-05T08:45:32.097Z,100368.72
2022-11-05T08:48:04.027Z,100375.66
2022-11-05T08:50:31.641Z,100369.69
2022-11-05T08:52:58.507Z,100370.63
2022-11-05T08:55:25.916Z,100366.78
2022-11-05T08:57:57.411Z,100374.28
2022-11-05T09:00:25.433Z,100362.66
2022-11-05T09:02:52.291Z,100374.41
2022-11-05T09:05:19.468Z,100368.28
2022-11-05T09:07:46.941Z,100373.28
2022-11-05T09:10:13.888Z,100361.44
2022-11-05T09:12:40.828Z,100366.44
2022-11-05T09:15:08.238Z,100363.25
2022-11-05T09:17:35.252Z,100356.41
2022-11-05T09:20:03.820Z,100359.72
2022-11-05T09:22:30.926Z,100363.94
2022-11-05T09:24:57.801Z,100357.81
2022-11-05T09:27:24.649Z,100356.22
2022-11-05T09:29:51.534Z,100366.56
2022-11-05T09:32:19.447Z,100359.50
2022-11-05T09:34:48.579Z,100355.97
2022-11-05T09:37:15.671Z,100344.91
2022-11-05T09:39:42.534Z,100346.81
2022-11-05T09:42:13.925Z,100346.91
2022-11-05T09:44:52.466Z,100345.22
2022-11-05T09:47:25.282Z,100346.03
2022-11-05T09:49:54.878Z,100342.84
2022-11-05T09:52:25.800Z,100339.66
2022-11-05T09:54:54.382Z,100335.72
2022-11-05T09:57:32.940Z,100341.75
2022-11-05T10:00:04.645Z,100344.19
2022-11-05T10:02:46.214Z,100336.13
2022-11-05T10:05:14.957Z,100339.31
2022-11-05T10:07:55.922Z,100332.38
2022-11-05T10:10:28.701Z,100337.75
2022-11-05T10:13:01.284Z,100334.41
2022-11-05T10:15:43.254Z,100331.75
2022-11-05T10:18:35.099Z,100332.38
2022-11-05T10:21:02.418Z,100337.00
2022-11-05T10:23:29.694Z,100346.41
2022-11-05T10:26:07.808Z,100337.69
2022-11-05T10:28:35.813Z,100341.63
2022-11-05T10:31:06.432Z,100341.25
2022-11-05T10:33:48.599Z,100341.84
2022-11-05T10:36:22.630Z,100329.28
2022-11-05T10:38:50.533Z,100335.03
2022-11-05T10:41:32.782Z,100336.16
2022-11-05T10:44:25.788Z,100326.53
2022-11-05T10:47:10.758Z,100327.41
2022-11-05T10:49:55.698Z,100331.63
2022-11-05T10:52:27.092Z,100330.94
2022-11-05T10:54:58.791Z,100322.09
2022-11-05T10:57:30.835Z,100320.53
2022-11-05T11:00:16.183Z,100320.88
2022-11-05T11:02:52.795Z,100320.06
2022-11-05T11:05:27.862Z,100311.66
2022-11-05T11:08:09.269Z,100319.56
2022-11-05T11:10:50.234Z,100318.06
2022-11-05T11:13:29.360Z,100312.16
2022-11-05T11:16:14.883Z,100316.06
2022-11-05T11:18:43.661Z,100308.28
2022-11-05T11:21:17.755Z,100303.59
2022-11-05T11:23:54.868Z,100301.31
2022-11-05T11:26:24.615Z,100314.25
2022-11-05T11:29:00.138Z,100300.03
2022-11-05T11:31:30.667Z,100298.75
2022-11-05T11:34:03.362Z,100305.47
2022-11-05T11:36:41.458Z,100309.97
2022-11-05T11:39:25.186Z,100301.56
2022-11-05T11:41:56.219Z,100297.34
2022-11-05T11:44:29.673Z,100294.59
2022-11-05T11:47:05.134Z,100290.59
2022-11-05T11:49:45.630Z,100300.72
2022-11-05T11:52:30.818Z,100291.16
2022-11-05T11:55:13.005Z,100297.91
2022-11-05T11:57:52.005Z,100290.94
2022-11-05T12:00:21.999Z,100296.97
2022-11-05T12:03:41.552Z,100291.53
2022-11-05T12:06:14.223Z,100291.44
2022-11-05T12:08:58.132Z,100294.34
2022-11-05T12:12:06.044Z,100295.19
2022-11-05T12:14:56.462Z,100300.84
2022-11-05T12:17:50.219Z,100295.41
2022-11-05T12:20:31.128Z,100297.41
2022-11-05T12:23:38.974Z,100294.84
2022-11-05T12:26:20.697Z,100303.28
2022-11-05T12:29:18.585Z,100309.59
2022-11-05T12:31:48.683Z,100308.47
2022-11-05T12:34:37.308Z,100313.66
2022-11-05T12:37:28.988Z,100306.16
2022-11-05T12:40:32.892Z,100319.09
2022-11-05T12:43:38.278Z,100320.78
2022-11-05T12:46:23.651Z,100312.47
2022-11-05T12:48:56.460Z,100315.03
2022-11-05T12:51:41.241Z,100316.31
2022-11-05T12:54:16.420Z,100308.88
2022-11-05T12:56:50.898Z,100313.75
2022-11-05T12:59:20.474Z,100316.28
2022-11-05T13:01:53.866Z,100311.66
2022-11-05T13:04:40.462Z,100311.03
2022-11-05T13:07:11.801Z,100306.13
2022-11-05T13:09:57.290Z,100316.03
2022-11-05T13:12:27.763Z,100315.88
2022-11-05T13:15:02.211Z,100314.97
2022-11-05T13:17:48.945Z,100310.97
2022-11-05T13:20:21.418Z,100318.78
2022-11-05T13:23:07.275Z,100320.22
2022-11-05T13:25:40.775Z,100315.16
2022-11-05T13:28:33.622Z,100317.13
2022-11-05T13:31:03.556Z,100319.25
2022-11-05T13:33:45.652Z,100320.41
2022-11-05T13:36:32.916Z,100328.00
2022-11-05T13:39:19.646Z,100324.19
2022-11-05T13:42:01.605Z,100321.41
2022-11-05T13:44:59.602Z,100322.53
2022-11-05T13:47:57.440Z,100331.25
2022-11-05T13:50:27.218Z,100331.25
2022-11-05T13:53:09.174Z,100332.22
2022-11-05T13:56:00.687Z,100340.50
2022-11-05T13:58:53.811Z,100334.22
2022-11-05T14:01:35.580Z,100337.09
2022-11-05T14:04:03.689Z,100336.75
2022-11-05T14:06:34.848Z,100340.22
2022-11-05T14:09:11.175Z,100340.03
2022-11-05T14:11:42.699Z,100340.25
2022-11-05T14:14:22.645Z,100340.13
2022-11-05T14:16:55.355Z,100347.63
2022-11-05T14:19:33.505Z,100343.16
2022-11-05T14:22:20.557Z,100356.03
2022-11-05T14:24:48.042Z,100355.31
2022-11-05T14:27:15.038Z,100361.56
2022-11-05T14:29:44.065Z,100363.75
2022-11-05T14:32:17.099Z,100350.44
2022-11-05T14:35:13.124Z,100353.72
2022-11-05T14:37:42.180Z,100366.78
2022-11-05T14:40:36.456Z,100371.88
2022-11-05T14:43:05.656Z,100363.56
2022-11-05T14:45:37.073Z,100362.84
2022-11-05T14:48:07.460Z,100365.91
2022-11-05T14:50:41.316Z,100358.91
2022-11-05T14:53:25.383Z,100366.28
2022-11-05T14:56:17.443Z,100369.16
2022-11-05T14:58:46.155Z,100374.41
2022-11-05T15:01:15.934Z,100375.28
2022-11-05T15:03:46.528Z,100372.25
2022-11-05T15:06:31.338Z,100379.44
2022-11-05T15:09:25.705Z,100380.16
2022-11-05T15:12:02.822Z,100379.78
2022-11-05T15:14:42.343Z,100376.44
2022-11-05T15:17:22.160Z,100380.44
2022-11-05T15:19:50.769Z,100373.00
2022-11-05T15:22:30.932Z,100376.06
2022-11-05T15:24:58.467Z,100375.88
2022-11-05T15:27:48.443Z,100386.34
2022-11-05T15:30:21.178Z,100387.34
2022-11-05T15:32:48.389Z,100378.47
2022-11-05T15:35:27.101Z,100381.94
2022-11-05T15:38:01.834Z,100383.44
2022-11-05T15:40:33.162Z,100389.88
2022-11-05T15:43:17.806Z,100393.84
2022-11-05T15:45:57.164Z,100404.09
2022-11-05T15:48:24.047Z,100407.84
2022-11-05T15:50:51.368Z,100418.31
2022-11-05T15:53:47.520Z,100417.34
2022-11-05T15:56:28.601Z,100424.44
2022-11-05T15:59:04.126Z,100431.28
2022-11-05T16:01:37.184Z,100430.22
2022-11-05T16:04:16.413Z,100437.53
2022-11-05T16:06:47.332Z,100435.78
2022-11-05T16:09:26.217Z,100438.44
2022-11-05T16:12:20.847Z,100439.31
2022-11-05T16:14:59.916Z,100439.56
2022-11-05T16:17:31.435Z,100448.84
2022-11-05T16:19:58.798Z,100455.31
2022-11-05T16:22:26.451Z,100446.16
2022-11-05T16:24:53.320Z,100456.28
2022-11-05T16:27:22.214Z,100460.69
2022-11-05T16:29:54.660Z,100457.13
2022-11-05T16:32:31.105Z,100465.91
2022-11-05T16:35:04.353Z,100467.06
2022-11-05T16:37:40.088Z,100464.41
2022-11-05T16:40:14.632Z,100465.56
2022-11-05T16:42:42.488Z,100469.19
2022-11-05T16:45:14.860Z,100466.81
2022-11-05T16:47:43.309Z,100474.94
2022-11-05T16:50:26.777Z,100473.44
2022-11-05T16:52:53.864Z,100483.44
2022-11-05T16:55:21.154Z,100487.59
2022-11-05T16:57:52.101Z,100487.38
2022-11-05T17:00:20.680Z,100497.25
2022-11-05T17:02:48.157Z,100501.63
2022-11-05T17:05:19.946Z,100497.38
2022-11-05T17:07:47.343Z,100504.06
2022-11-05T17:10:14.719Z,100501.81
2022-11-05T17:12:42.751Z,100495.13
2022-11-05T17:15:15.684Z,100509.19
2022-11-05T17:17:42.535Z,100500.31
2022-11-05T17:20:19.547Z,100503.38
2022-11-05T17:22:46.486Z,100508.41
2022-11-05T17:25:13.282Z,100507.16
2022-11-05T17:27:40.152Z,100500.22
2022-11-05T17:30:07.916Z,100500.72
2022-11-05T17:32:34.754Z,100502.75
2022-11-05T17:35:01.744Z,100504.63
2022-11-05T17:37:28.667Z,100515.53
2022-11-05T17:39:55.636Z,100513.16
2022-11-05T17:42:22.543Z,100513.34
2022-11-05T17:44:49.478Z,100514.91
2022-11-05T17:47:16.375Z,100518.13
2022-11-05T17:49:43.200Z,100511.41
2022-11-05T17:52:10.660Z,100519.72
2022-11-05T17:54:37.679Z,100516.00
2022-11-05T17:57:05.644Z,100522.69
2022-11-05T17:59:32.918Z,100521.31
2022-11-05T18:02:00.057Z,100527.50
2022-11-05T18:04:27.092Z,100518.03
2022-11-05T18:07:55.682Z,100519.03
2022-11-05T18:10:23.052Z,100517.63
2022-11-05T18:12:54.480Z,100520.34
2022-11-05T18:15:21.873Z,100520.59
2022-11-05T18:17:49.154Z,100521.22
2022-11-05T18:20:19.359Z,100531.25
2022-11-05T18:22:49.764Z,100526.84
2022-11-05T18:25:17.990Z,100524.16
2022-11-05T18:27:45.332Z,100523.09
2022-11-05T18:30:15.670Z,100521.59
2022-11-05T18:32:44.071Z,100533.44
2022-11-05T18:35:12.122Z,100541.31
2022-11-05T18:37:39.441Z,100540.00
2022-11-05T18:40:10.755Z,100549.28
2022-11-05T18:42:38.212Z,100544.03
2022-11-05T18:45:08.881Z,100543.88
2022-11-05T18:47:36.234Z,100547.25
2022-11-05T18:50:40.241Z,100539.94
2022-11-05T18:53:09.263Z,100556.06
2022-11-05T18:55:39.303Z,100561.19
2022-11-05T18:58:06.315Z,100561.06
2022-11-05T19:00:33.274Z,100558.88
2022-11-05T19:03:00.527Z,100571.81
2022-11-05T19:05:29.450Z,100567.66
2022-11-05T19:07:56.951Z,100567.56
2022-11-05T19:11:00.191Z,100565.59
2022-11-05T19:13:27.182Z,100568.75
2022-11-05T19:15:58.139Z,100573.16
2022-11-05T19:18:25.284Z,100569.50
2022-11-05T19:20:58.351Z,100572.97
2022-11-05T19:23:25.534Z,100571.81
2022-11-05T19:27:22.564Z,100584.47
2022-11-05T19:30:00.890Z,100580.50
2022-11-05T19:32:27.846Z,100593.41
2022-11-05T19:34:55.035Z,100590.59
2022-11-05T19:37:25.894Z,100585.34
2022-11-05T19:39:55.366Z,100590.22
2022-11-05T19:42:22.384Z,100583.88
2022-11-05T19:44:49.301Z,100586.53
2022-11-05T19:47:16.201Z,100595.31
2022-11-05T19:49:43.253Z,100593.03
2022-11-05T19:52:10.297Z,100595.03
2022-11-05T19:54:37.565Z,100603.13
2022-11-05T19:57:06.435Z,100607.22
2022-11-05T20:00:07.259Z,100606.59
2022-11-05T20:02:37.602Z,100605.22
2022-11-05T20:05:05.027Z,100598.19
2022-11-05T20:07:31.962Z,100604.41
2022-11-05T20:09:58.833Z,100596.00
2022-11-05T20:12:25.864Z,100590.41
2022-11-05T20:14:52.756Z,100608.72
2022-11-05T20:17:23.605Z,100606.59
2022-11-05T20:19:51.004Z,100612.19
2022-11-05T20:22:17.962Z,100600.22
2022-11-05T20:24:45.232Z,100608.47
2022-11-05T20:27:12.155Z,100602.44
2022-11-05T20:29:39.209Z,100605.59
2022-11-05T20:32:07.903Z,100608.84
2022-11-05T20:34:35.183Z,100600.94
2022-11-05T20:37:02.560Z,100613.03
2022-11-05T20:39:30.043Z,100618.88
2022-11-05T20:41:57.248Z,100615.03
2022-11-05T20:44:27.110Z,100619.97
2022-11-05T20:46:57.926Z,100616.56
2022-11-05T20:49:25.865Z,100619.75
2022-11-05T20:51:53.462Z,100622.34
2022-11-05T20:54:20.704Z,100622.41
2022-11-05T20:56:47.847Z,100624.28
2022-11-05T20:59:14.977Z,100623.72
2022-11-05T21:01:41.968Z,100625.56
2022-11-05T21:04:09.095Z,100620.69
2022-11-05T21:06:36.176Z,100625.38
2022-11-05T21:09:06.082Z,100625.75
2022-11-05T21:11:54.935Z,100618.22
2022-11-05T21:14:21.941Z,100619.50
2022-11-05T21:16:48.858Z,100630.47
2022-11-05T21:19:15.991Z,100630.78
2022-11-05T21:21:42.887Z,100618.94
2022-11-05T21:24:09.793Z,100622.25
2022-11-05T21:26:37.031Z,100627.44
2022-11-05T21:29:04.080Z,100629.63
2022-11-05T21:31:30.994Z,100626.59
2022-11-05T21:34:00.971Z,100627.44
2022-11-05T21:36:27.889Z,100633.28
2022-11-05T21:38:55.096Z,100628.69
2022-11-05T21:41:27.875Z,100627.63
2022-11-05T21:43:54.944Z,100634.47
2022-11-05T21:46:21.848Z,100625.09
2022-11-05T21:48:58.591Z,100622.16
2022-11-05T21:51:44.229Z,100629.47
2022-11-05T21:54:30.173Z,100619.16
2022-11-05T21:57:27.022Z,100630.81
2022-11-05T21:59:57.724Z,100627.31
2022-11-05T22:02:28.474Z,100628.75
2022-11-05T22:04:57.752Z,100625.66
2022-11-05T22:07:36.539Z,100617.03
2022-11-05T22:10:19.919Z,100633.84
2022-11-05T22:12:47.064Z,100641.03
2022-11-05T22:15:15.857Z,100626.81
2022-11-05T22:17:47.204Z,100625.69
2022-11-05T22:20:15.054Z,100628.06
2022-11-05T22:22:42.136Z,100619.91
2022-11-05T22:25:18.172Z,100619.41
2022-11-05T22:28:05.260Z,100627.72
2022-11-05T22:30:39.645Z,100620.13
2022-11-05T22:33:12.194Z,100626.09
2022-11-05T22:35:46.763Z,100631.50
2022-11-05T22:38:19.774Z,100630.91
2022-11-05T22:40:58.916Z,100622.19
2022-11-05T22:43:39.129Z,100615.47
2022-11-05T22:46:28.605Z,100616.50
2022-11-05T22:49:32.957Z,100617.41
2022-11-05T22:52:09.909Z,100633.53
2022-11-05T22:55:13.833Z,100645.84
2022-11-05T22:57:41.079Z,100650.28
2022-11-05T23:00:15.377Z,100652.38
2022-11-05T23:02:42.778Z,100639.50
2022-11-05T23:05:10.539Z,100641.19
2022-11-05T23:08:00.404Z,100646.09
2022-11-05T23:10:45.825Z,100646.94
2022-11-05T23:13:23.986Z,100649.38
2022-11-05T23:16:12.592Z,100646.03
2022-11-05T23:18:58.199Z,100640.75
2022-11-05T23:21:43.427Z,100642.53
2022-11-05T23:24:12.670Z,100638.22
2022-11-05T23:26:52.235Z,100646.25
2022-11-05T23:29:24.057Z,100643.50
2022-11-05T23:32:10.594Z,100656.25
2022-11-05T23:34:38.370Z,100647.28
2022-11-05T23:37:24.311Z,100646.41
2022-11-05T23:39:51.656Z,100653.44
2022-11-05T23:42:38.864Z,100659.25
2022-11-05T23:45:42.766Z,100656.22
2022-11-05T23:48:26.763Z,100654.44
2022-11-05T23:51:14.095Z,100659.78
2022-11-05T23:53:44.222Z,100662.50
2022-11-05T23:56:15.487Z,100670.75
2022-11-05T23:58:43.229Z,100670.31
